sensor_id;sensor_type;location;lat;lon;timestamp;P1;durP1;ratioP1;P2;durP2;ratioP2
50745;SDS011;36711;51.972;21.204;2023-07-13T00:01:02;5.30;;;3.50;;
50745;SDS011;36711;51.972;21.204;2023-07-13T00:03:41;4.80;;;3.10;;
50745;SDS011;36711;51.972;21.204;2023-07-13T00:06:10;6.10;;;3.60;;
50745;SDS011;36711;51.972;21.204;2023-07-13T00:08:40;6.50;;;3.60;;
50745;SDS011;36711;51.972;21.204;2023-07-13T00:11:09;6.60;;;3.90;;
50745;SDS011;36711;51.972;21.204;2023-07-13T00:13:40;5.60;;;3.90;;
50745;SDS011;36711;51.972;21.204;2023-07-13T00:16:10;7.00;;;4.30;;
50745;SDS011;36711;51.972;21.204;2023-07-13T00:18:39;5.90;;;3.80;;
50745;SDS011;36711;51.972;21.204;2023-07-13T00:21:08;4.80;;;3.30;;
50745;SDS011;36711;51.972;21.204;2023-07-13T00:23:38;6.00;;;3.30;;
50745;SDS011;36711;51.972;21.204;2023-07-13T00:26:08;7.50;;;4.20;;
50745;SDS011;36711;51.972;21.204;2023-07-13T00:28:38;5.30;;;4.10;;
50745;SDS011;36711;51.972;21.204;2023-07-13T00:31:08;6.50;;;3.90;;
50745;SDS011;36711;51.972;21.204;2023-07-13T00:33:37;4.40;;;3.20;;
50745;SDS011;36711;51.972;21.204;2023-07-13T00:36:06;4.10;;;3.10;;
50745;SDS011;36711;51.972;21.204;2023-07-13T00:38:36;4.20;;;3.20;;
50745;SDS011;36711;51.972;21.204;2023-07-13T00:41:05;6.40;;;3.60;;
50745;SDS011;36711;51.972;21.204;2023-07-13T00:43:33;6.90;;;4.00;;
50745;SDS011;36711;51.972;21.204;2023-07-13T00:48:32;5.60;;;3.70;;
50745;SDS011;36711;51.972;21.204;2023-07-13T00:51:02;4.40;;;3.60;;
50745;SDS011;36711;51.972;21.204;2023-07-13T00:53:31;3.70;;;2.80;;
50745;SDS011;36711;51.972;21.204;2023-07-13T00:56:01;5.20;;;3.40;;
50745;SDS011;36711;51.972;21.204;2023-07-13T00:58:31;6.00;;;4.00;;
50745;SDS011;36711;51.972;21.204;2023-07-13T01:01:00;5.60;;;4.00;;
50745;SDS011;36711;51.972;21.204;2023-07-13T01:03:29;5.60;;;3.80;;
50745;SDS011;36711;51.972;21.204;2023-07-13T01:05:58;5.60;;;3.80;;
50745;SDS011;36711;51.972;21.204;2023-07-13T01:08:27;3.20;;;2.80;;
50745;SDS011;36711;51.972;21.204;2023-07-13T01:10:56;4.90;;;3.10;;
50745;SDS011;36711;51.972;21.204;2023-07-13T01:13:26;6.90;;;3.60;;
50745;SDS011;36711;51.972;21.204;2023-07-13T01:15:56;5.30;;;3.50;;
50745;SDS011;36711;51.972;21.204;2023-07-13T01:18:26;4.00;;;3.60;;
50745;SDS011;36711;51.972;21.204;2023-07-13T01:21:00;6.00;;;4.10;;
50745;SDS011;36711;51.972;21.204;2023-07-13T01:23:30;4.60;;;3.80;;
50745;SDS011;36711;51.972;21.204;2023-07-13T01:25:59;3.50;;;3.20;;
50745;SDS011;36711;51.972;21.204;2023-07-13T01:28:28;4.70;;;3.20;;
50745;SDS011;36711;51.972;21.204;2023-07-13T01:30:58;3.30;;;2.90;;
50745;SDS011;36711;51.972;21.204;2023-07-13T01:33:27;5.00;;;3.40;;
50745;SDS011;36711;51.972;21.204;2023-07-13T01:35:56;6.50;;;3.60;;
50745;SDS011;36711;51.972;21.204;2023-07-13T01:38:28;4.10;;;3.70;;
50745;SDS011;36711;51.972;21.204;2023-07-13T01:40:57;4.40;;;3.70;;
50745;SDS011;36711;51.972;21.204;2023-07-13T01:43:26;3.00;;;2.70;;
50745;SDS011;36711;51.972;21.204;2023-07-13T01:45:55;3.70;;;2.90;;
50745;SDS011;36711;51.972;21.204;2023-07-13T01:48:44;5.50;;;3.70;;
50745;SDS011;36711;51.972;21.204;2023-07-13T01:51:12;4.90;;;3.80;;
50745;SDS011;36711;51.972;21.204;2023-07-13T01:53:42;8.70;;;4.20;;
50745;SDS011;36711;51.972;21.204;2023-07-13T01:56:10;6.20;;;4.00;;
50745;SDS011;36711;51.972;21.204;2023-07-13T01:58:39;7.90;;;4.10;;
50745;SDS011;36711;51.972;21.204;2023-07-13T02:01:08;5.50;;;3.10;;
50745;SDS011;36711;51.972;21.204;2023-07-13T02:03:37;4.30;;;3.10;;
50745;SDS011;36711;51.972;21.204;2023-07-13T02:06:06;5.40;;;3.60;;
50745;SDS011;36711;51.972;21.204;2023-07-13T02:08:35;4.20;;;3.50;;
50745;SDS011;36711;51.972;21.204;2023-07-13T02:11:03;4.60;;;3.60;;
50745;SDS011;36711;51.972;21.204;2023-07-13T02:13:32;4.90;;;3.40;;
50745;SDS011;36711;51.972;21.204;2023-07-13T02:16:01;8.40;;;4.30;;
50745;SDS011;36711;51.972;21.204;2023-07-13T02:18:30;6.00;;;2.90;;
50745;SDS011;36711;51.972;21.204;2023-07-13T02:20:59;4.10;;;3.30;;
50745;SDS011;36711;51.972;21.204;2023-07-13T02:23:27;6.20;;;3.80;;
50745;SDS011;36711;51.972;21.204;2023-07-13T02:25:57;5.40;;;3.70;;
50745;SDS011;36711;51.972;21.204;2023-07-13T02:28:26;4.60;;;4.10;;
50745;SDS011;36711;51.972;21.204;2023-07-13T02:30:54;7.70;;;4.30;;
50745;SDS011;36711;51.972;21.204;2023-07-13T02:33:23;5.80;;;3.90;;
50745;SDS011;36711;51.972;21.204;2023-07-13T02:35:52;3.30;;;3.00;;
50745;SDS011;36711;51.972;21.204;2023-07-13T02:38:20;3.60;;;2.60;;
50745;SDS011;36711;51.972;21.204;2023-07-13T02:40:49;5.10;;;3.10;;
50745;SDS011;36711;51.972;21.204;2023-07-13T02:43:18;5.20;;;3.50;;
50745;SDS011;36711;51.972;21.204;2023-07-13T02:45:47;7.00;;;3.80;;
50745;SDS011;36711;51.972;21.204;2023-07-13T02:48:16;5.80;;;3.70;;
50745;SDS011;36711;51.972;21.204;2023-07-13T02:50:45;4.90;;;4.20;;
50745;SDS011;36711;51.972;21.204;2023-07-13T02:53:14;5.00;;;3.40;;
50745;SDS011;36711;51.972;21.204;2023-07-13T02:55:42;10.40;;;3.10;;
50745;SDS011;36711;51.972;21.204;2023-07-13T02:58:16;6.10;;;3.50;;
50745;SDS011;36711;51.972;21.204;2023-07-13T03:00:46;8.80;;;3.70;;
50745;SDS011;36711;51.972;21.204;2023-07-13T03:03:15;6.10;;;3.80;;
50745;SDS011;36711;51.972;21.204;2023-07-13T03:05:44;4.90;;;3.70;;
50745;SDS011;36711;51.972;21.204;2023-07-13T03:08:19;5.70;;;3.70;;
50745;SDS011;36711;51.972;21.204;2023-07-13T03:10:48;5.00;;;4.00;;
50745;SDS011;36711;51.972;21.204;2023-07-13T03:13:16;4.50;;;3.50;;
50745;SDS011;36711;51.972;21.204;2023-07-13T03:15:48;7.50;;;2.80;;
50745;SDS011;36711;51.972;21.204;2023-07-13T03:18:16;5.00;;;2.80;;
50745;SDS011;36711;51.972;21.204;2023-07-13T03:20:45;3.80;;;3.40;;
50745;SDS011;36711;51.972;21.204;2023-07-13T03:23:14;4.70;;;3.60;;
50745;SDS011;36711;51.972;21.204;2023-07-13T03:25:43;6.80;;;3.90;;
50745;SDS011;36711;51.972;21.204;2023-07-13T03:28:12;4.80;;;4.30;;
50745;SDS011;36711;51.972;21.204;2023-07-13T03:30:41;4.80;;;3.70;;
50745;SDS011;36711;51.972;21.204;2023-07-13T03:33:10;6.10;;;3.80;;
50745;SDS011;36711;51.972;21.204;2023-07-13T03:35:40;5.20;;;3.60;;
50745;SDS011;36711;51.972;21.204;2023-07-13T03:38:09;5.50;;;3.90;;
50745;SDS011;36711;51.972;21.204;2023-07-13T03:40:38;5.20;;;4.20;;
50745;SDS011;36711;51.972;21.204;2023-07-13T03:43:07;4.70;;;4.10;;
50745;SDS011;36711;51.972;21.204;2023-07-13T03:45:37;5.00;;;4.20;;
50745;SDS011;36711;51.972;21.204;2023-07-13T03:48:07;7.30;;;4.40;;
50745;SDS011;36711;51.972;21.204;2023-07-13T03:50:35;4.60;;;4.00;;
50745;SDS011;36711;51.972;21.204;2023-07-13T03:53:04;4.80;;;3.70;;
50745;SDS011;36711;51.972;21.204;2023-07-13T03:55:33;5.20;;;4.30;;
50745;SDS011;36711;51.972;21.204;2023-07-13T04:00:49;7.20;;;4.90;;
50745;SDS011;36711;51.972;21.204;2023-07-13T04:03:19;8.40;;;4.70;;
50745;SDS011;36711;51.972;21.204;2023-07-13T04:05:47;6.60;;;4.60;;
50745;SDS011;36711;51.972;21.204;2023-07-13T04:08:16;5.60;;;4.30;;
50745;SDS011;36711;51.972;21.204;2023-07-13T04:10:45;6.40;;;4.50;;
50745;SDS011;36711;51.972;21.204;2023-07-13T04:13:14;6.40;;;4.60;;
50745;SDS011;36711;51.972;21.204;2023-07-13T04:15:43;6.90;;;5.30;;
50745;SDS011;36711;51.972;21.204;2023-07-13T04:18:12;7.60;;;5.40;;
50745;SDS011;36711;51.972;21.204;2023-07-13T04:20:41;8.30;;;5.40;;
50745;SDS011;36711;51.972;21.204;2023-07-13T04:23:09;7.80;;;4.90;;
50745;SDS011;36711;51.972;21.204;2023-07-13T04:25:38;7.20;;;4.70;;
50745;SDS011;36711;51.972;21.204;2023-07-13T04:28:07;6.10;;;4.90;;
50745;SDS011;36711;51.972;21.204;2023-07-13T04:30:36;7.70;;;5.50;;
50745;SDS011;36711;51.972;21.204;2023-07-13T04:33:05;9.60;;;5.60;;
50745;SDS011;36711;51.972;21.204;2023-07-13T04:35:34;7.90;;;5.40;;
50745;SDS011;36711;51.972;21.204;2023-07-13T04:38:03;7.00;;;5.90;;
50745;SDS011;36711;51.972;21.204;2023-07-13T04:40:32;10.00;;;4.90;;
50745;SDS011;36711;51.972;21.204;2023-07-13T04:43:01;9.20;;;4.60;;
50745;SDS011;36711;51.972;21.204;2023-07-13T04:45:30;10.70;;;4.90;;
50745;SDS011;36711;51.972;21.204;2023-07-13T04:48:00;8.00;;;5.60;;
50745;SDS011;36711;51.972;21.204;2023-07-13T04:50:28;6.90;;;5.60;;
50745;SDS011;36711;51.972;21.204;2023-07-13T04:52:57;7.10;;;5.50;;
50745;SDS011;36711;51.972;21.204;2023-07-13T04:55:27;13.20;;;6.10;;
50745;SDS011;36711;51.972;21.204;2023-07-13T04:57:59;10.60;;;6.10;;
50745;SDS011;36711;51.972;21.204;2023-07-13T05:00:28;6.10;;;4.50;;
50745;SDS011;36711;51.972;21.204;2023-07-13T05:02:57;5.80;;;4.10;;
50745;SDS011;36711;51.972;21.204;2023-07-13T05:05:27;6.80;;;4.80;;
50745;SDS011;36711;51.972;21.204;2023-07-13T05:07:55;9.50;;;5.30;;
50745;SDS011;36711;51.972;21.204;2023-07-13T05:10:24;8.70;;;5.90;;
50745;SDS011;36711;51.972;21.204;2023-07-13T05:12:53;7.40;;;5.40;;
50745;SDS011;36711;51.972;21.204;2023-07-13T05:15:22;7.10;;;5.50;;
50745;SDS011;36711;51.972;21.204;2023-07-13T05:17:51;11.60;;;6.00;;
50745;SDS011;36711;51.972;21.204;2023-07-13T05:20:20;5.00;;;4.50;;
50745;SDS011;36711;51.972;21.204;2023-07-13T05:22:49;5.50;;;4.10;;
50745;SDS011;36711;51.972;21.204;2023-07-13T05:25:19;9.40;;;4.80;;
50745;SDS011;36711;51.972;21.204;2023-07-13T05:27:48;6.40;;;5.00;;
50745;SDS011;36711;51.972;21.204;2023-07-13T05:30:17;9.20;;;5.30;;
50745;SDS011;36711;51.972;21.204;2023-07-13T05:32:45;6.80;;;5.80;;
50745;SDS011;36711;51.972;21.204;2023-07-13T05:35:14;9.10;;;6.30;;
50745;SDS011;36711;51.972;21.204;2023-07-13T05:37:43;9.30;;;5.50;;
50745;SDS011;36711;51.972;21.204;2023-07-13T05:40:12;6.00;;;4.50;;
50745;SDS011;36711;51.972;21.204;2023-07-13T05:42:40;10.20;;;5.50;;
50745;SDS011;36711;51.972;21.204;2023-07-13T05:45:09;8.40;;;5.90;;
50745;SDS011;36711;51.972;21.204;2023-07-13T05:47:38;9.30;;;6.00;;
50745;SDS011;36711;51.972;21.204;2023-07-13T05:50:07;11.10;;;6.80;;
50745;SDS011;36711;51.972;21.204;2023-07-13T05:52:35;9.20;;;6.40;;
50745;SDS011;36711;51.972;21.204;2023-07-13T05:55:04;9.70;;;6.80;;
50745;SDS011;36711;51.972;21.204;2023-07-13T05:57:33;8.00;;;5.80;;
50745;SDS011;36711;51.972;21.204;2023-07-13T06:00:02;6.20;;;4.90;;
50745;SDS011;36711;51.972;21.204;2023-07-13T06:02:31;12.60;;;5.70;;
50745;SDS011;36711;51.972;21.204;2023-07-13T06:05:00;8.10;;;6.20;;
50745;SDS011;36711;51.972;21.204;2023-07-13T06:07:29;8.40;;;6.10;;
50745;SDS011;36711;51.972;21.204;2023-07-13T06:09:58;13.40;;;6.90;;
50745;SDS011;36711;51.972;21.204;2023-07-13T06:12:27;15.70;;;7.80;;
50745;SDS011;36711;51.972;21.204;2023-07-13T06:14:57;10.30;;;7.60;;
50745;SDS011;36711;51.972;21.204;2023-07-13T06:17:25;9.50;;;7.20;;
50745;SDS011;36711;51.972;21.204;2023-07-13T06:19:54;10.90;;;7.60;;
50745;SDS011;36711;51.972;21.204;2023-07-13T06:22:23;11.50;;;7.40;;
50745;SDS011;36711;51.972;21.204;2023-07-13T06:24:55;8.70;;;5.80;;
50745;SDS011;36711;51.972;21.204;2023-07-13T06:27:24;7.70;;;5.30;;
50745;SDS011;36711;51.972;21.204;2023-07-13T06:29:52;12.30;;;6.70;;
50745;SDS011;36711;51.972;21.204;2023-07-13T06:32:21;13.20;;;6.90;;
50745;SDS011;36711;51.972;21.204;2023-07-13T06:34:50;11.30;;;7.00;;
50745;SDS011;36711;51.972;21.204;2023-07-13T06:37:20;13.00;;;7.10;;
50745;SDS011;36711;51.972;21.204;2023-07-13T06:39:49;9.80;;;7.10;;
50745;SDS011;36711;51.972;21.204;2023-07-13T06:42:18;9.70;;;7.00;;
50745;SDS011;36711;51.972;21.204;2023-07-13T06:44:46;10.80;;;6.90;;
50745;SDS011;36711;51.972;21.204;2023-07-13T06:47:15;10.10;;;7.00;;
50745;SDS011;36711;51.972;21.204;2023-07-13T06:49:44;11.30;;;6.90;;
50745;SDS011;36711;51.972;21.204;2023-07-13T06:52:13;9.20;;;7.30;;
50745;SDS011;36711;51.972;21.204;2023-07-13T06:54:42;9.20;;;6.80;;
50745;SDS011;36711;51.972;21.204;2023-07-13T06:57:11;8.00;;;6.80;;
50745;SDS011;36711;51.972;21.204;2023-07-13T06:59:40;7.00;;;6.30;;
50745;SDS011;36711;51.972;21.204;2023-07-13T07:02:09;7.90;;;6.50;;
50745;SDS011;36711;51.972;21.204;2023-07-13T07:04:38;8.30;;;6.20;;
50745;SDS011;36711;51.972;21.204;2023-07-13T07:07:07;9.00;;;6.20;;
50745;SDS011;36711;51.972;21.204;2023-07-13T07:09:36;8.60;;;6.30;;
50745;SDS011;36711;51.972;21.204;2023-07-13T07:12:04;7.00;;;5.50;;
50745;SDS011;36711;51.972;21.204;2023-07-13T07:14:33;13.30;;;5.60;;
50745;SDS011;36711;51.972;21.204;2023-07-13T07:17:03;6.10;;;5.50;;
50745;SDS011;36711;51.972;21.204;2023-07-13T07:19:31;7.90;;;5.60;;
50745;SDS011;36711;51.972;21.204;2023-07-13T07:22:00;8.00;;;5.80;;
50745;SDS011;36711;51.972;21.204;2023-07-13T07:24:29;8.40;;;5.30;;
50745;SDS011;36711;51.972;21.204;2023-07-13T07:26:58;13.60;;;5.60;;
50745;SDS011;36711;51.972;21.204;2023-07-13T07:29:30;9.00;;;5.70;;
50745;SDS011;36711;51.972;21.204;2023-07-13T07:32:01;6.30;;;5.30;;
50745;SDS011;36711;51.972;21.204;2023-07-13T07:34:45;7.80;;;5.20;;
50745;SDS011;36711;51.972;21.204;2023-07-13T07:37:14;6.00;;;5.10;;
50745;SDS011;36711;51.972;21.204;2023-07-13T07:39:46;9.20;;;5.30;;
50745;SDS011;36711;51.972;21.204;2023-07-13T07:42:35;6.10;;;4.50;;
50745;SDS011;36711;51.972;21.204;2023-07-13T07:45:04;7.20;;;4.50;;
50745;SDS011;36711;51.972;21.204;2023-07-13T07:47:33;6.20;;;4.50;;
50745;SDS011;36711;51.972;21.204;2023-07-13T07:50:02;6.70;;;4.50;;
50745;SDS011;36711;51.972;21.204;2023-07-13T07:52:31;8.80;;;4.90;;
50745;SDS011;36711;51.972;21.204;2023-07-13T07:55:04;7.10;;;4.80;;
50745;SDS011;36711;51.972;21.204;2023-07-13T07:57:36;7.60;;;4.80;;
50745;SDS011;36711;51.972;21.204;2023-07-13T08:00:07;6.60;;;4.90;;
50745;SDS011;36711;51.972;21.204;2023-07-13T08:02:39;8.10;;;5.20;;
50745;SDS011;36711;51.972;21.204;2023-07-13T08:05:30;9.60;;;4.90;;
50745;SDS011;36711;51.972;21.204;2023-07-13T08:08:02;5.60;;;5.00;;
50745;SDS011;36711;51.972;21.204;2023-07-13T08:10:31;6.20;;;5.10;;
50745;SDS011;36711;51.972;21.204;2023-07-13T08:13:00;6.00;;;4.80;;
50745;SDS011;36711;51.972;21.204;2023-07-13T08:15:32;6.90;;;4.60;;
50745;SDS011;36711;51.972;21.204;2023-07-13T08:18:00;5.20;;;4.60;;
50745;SDS011;36711;51.972;21.204;2023-07-13T08:20:29;8.50;;;4.60;;
50745;SDS011;36711;51.972;21.204;2023-07-13T08:22:58;5.80;;;4.40;;
50745;SDS011;36711;51.972;21.204;2023-07-13T08:25:27;8.40;;;4.20;;
50745;SDS011;36711;51.972;21.204;2023-07-13T08:27:56;6.70;;;4.80;;
50745;SDS011;36711;51.972;21.204;2023-07-13T08:30:24;6.20;;;4.40;;
50745;SDS011;36711;51.972;21.204;2023-07-13T08:32:53;5.00;;;4.20;;
50745;SDS011;36711;51.972;21.204;2023-07-13T08:35:22;6.40;;;4.90;;
50745;SDS011;36711;51.972;21.204;2023-07-13T08:37:51;5.70;;;4.40;;
50745;SDS011;36711;51.972;21.204;2023-07-13T08:40:22;6.60;;;4.60;;
50745;SDS011;36711;51.972;21.204;2023-07-13T08:45:22;6.30;;;4.00;;
50745;SDS011;36711;51.972;21.204;2023-07-13T08:47:52;6.90;;;4.80;;
50745;SDS011;36711;51.972;21.204;2023-07-13T08:50:29;7.90;;;4.60;;
50745;SDS011;36711;51.972;21.204;2023-07-13T08:53:00;7.70;;;4.60;;
50745;SDS011;36711;51.972;21.204;2023-07-13T08:55:31;5.40;;;4.80;;
50745;SDS011;36711;51.972;21.204;2023-07-13T09:00:43;8.80;;;4.60;;
50745;SDS011;36711;51.972;21.204;2023-07-13T09:03:17;10.70;;;4.70;;
50745;SDS011;36711;51.972;21.204;2023-07-13T09:05:56;6.10;;;4.70;;
50745;SDS011;36711;51.972;21.204;2023-07-13T09:08:46;9.60;;;4.90;;
50745;SDS011;36711;51.972;21.204;2023-07-13T09:13:57;6.70;;;4.80;;
50745;SDS011;36711;51.972;21.204;2023-07-13T09:16:29;5.60;;;5.10;;
50745;SDS011;36711;51.972;21.204;2023-07-13T09:19:00;14.40;;;4.90;;
50745;SDS011;36711;51.972;21.204;2023-07-13T09:21:34;8.30;;;4.70;;
50745;SDS011;36711;51.972;21.204;2023-07-13T09:24:21;7.10;;;4.60;;
50745;SDS011;36711;51.972;21.204;2023-07-13T09:26:50;8.30;;;4.30;;
50745;SDS011;36711;51.972;21.204;2023-07-13T09:29:23;5.20;;;4.70;;
50745;SDS011;36711;51.972;21.204;2023-07-13T09:31:55;5.80;;;5.00;;
50745;SDS011;36711;51.972;21.204;2023-07-13T09:34:29;5.70;;;4.70;;
50745;SDS011;36711;51.972;21.204;2023-07-13T09:39:31;5.30;;;4.50;;
50745;SDS011;36711;51.972;21.204;2023-07-13T09:42:07;4.20;;;3.90;;
50745;SDS011;36711;51.972;21.204;2023-07-13T09:47:16;8.20;;;4.30;;
50745;SDS011;36711;51.972;21.204;2023-07-13T09:49:46;5.00;;;4.50;;
50745;SDS011;36711;51.972;21.204;2023-07-13T09:52:15;9.00;;;4.40;;
50745;SDS011;36711;51.972;21.204;2023-07-13T09:54:44;7.80;;;4.60;;
50745;SDS011;36711;51.972;21.204;2023-07-13T09:57:17;5.20;;;4.30;;
50745;SDS011;36711;51.972;21.204;2023-07-13T09:59:48;11.70;;;4.30;;
50745;SDS011;36711;51.972;21.204;2023-07-13T10:02:24;4.60;;;4.10;;
50745;SDS011;36711;51.972;21.204;2023-07-13T10:04:57;3.90;;;3.50;;
50745;SDS011;36711;51.972;21.204;2023-07-13T10:07:27;6.20;;;3.30;;
50745;SDS011;36711;51.972;21.204;2023-07-13T10:09:59;3.90;;;3.30;;
50745;SDS011;36711;51.972;21.204;2023-07-13T10:12:30;3.90;;;3.00;;
50745;SDS011;36711;51.972;21.204;2023-07-13T10:15:04;3.80;;;2.70;;
50745;SDS011;36711;51.972;21.204;2023-07-13T10:17:51;3.50;;;2.80;;
50745;SDS011;36711;51.972;21.204;2023-07-13T10:22:59;7.90;;;3.00;;
50745;SDS011;36711;51.972;21.204;2023-07-13T10:25:31;4.90;;;2.90;;
50745;SDS011;36711;51.972;21.204;2023-07-13T10:28:23;3.00;;;2.60;;
50745;SDS011;36711;51.972;21.204;2023-07-13T10:30:51;3.00;;;2.60;;
50745;SDS011;36711;51.972;21.204;2023-07-13T10:33:21;3.90;;;3.10;;
50745;SDS011;36711;51.972;21.204;2023-07-13T10:35:51;7.20;;;3.00;;
50745;SDS011;36711;51.972;21.204;2023-07-13T10:40:56;3.60;;;3.20;;
50745;SDS011;36711;51.972;21.204;2023-07-13T10:43:27;4.20;;;3.10;;
50745;SDS011;36711;51.972;21.204;2023-07-13T10:45:57;4.80;;;3.50;;
50745;SDS011;36711;51.972;21.204;2023-07-13T10:48:27;3.70;;;3.10;;
50745;SDS011;36711;51.972;21.204;2023-07-13T10:50:58;8.20;;;3.80;;
50745;SDS011;36711;51.972;21.204;2023-07-13T10:53:30;5.40;;;3.90;;
50745;SDS011;36711;51.972;21.204;2023-07-13T10:56:00;4.60;;;3.60;;
50745;SDS011;36711;51.972;21.204;2023-07-13T10:58:32;4.80;;;4.30;;
50745;SDS011;36711;51.972;21.204;2023-07-13T11:01:11;7.00;;;4.40;;
50745;SDS011;36711;51.972;21.204;2023-07-13T11:03:50;4.70;;;4.30;;
50745;SDS011;36711;51.972;21.204;2023-07-13T11:08:52;7.10;;;4.90;;
50745;SDS011;36711;51.972;21.204;2023-07-13T11:22:11;10.00;;;4.90;;
50745;SDS011;36711;51.972;21.204;2023-07-13T11:24:52;4.50;;;3.40;;
50745;SDS011;36711;51.972;21.204;2023-07-13T11:27:22;8.80;;;3.30;;
50745;SDS011;36711;51.972;21.204;2023-07-13T11:29:51;8.30;;;3.40;;
50745;SDS011;36711;51.972;21.204;2023-07-13T11:32:22;4.70;;;3.70;;
50745;SDS011;36711;51.972;21.204;2023-07-13T11:34:51;7.40;;;3.80;;
50745;SDS011;36711;51.972;21.204;2023-07-13T11:37:21;6.20;;;3.20;;
50745;SDS011;36711;51.972;21.204;2023-07-13T11:39:51;12.40;;;3.40;;
50745;SDS011;36711;51.972;21.204;2023-07-13T11:42:20;5.30;;;2.90;;
50745;SDS011;36711;51.972;21.204;2023-07-13T11:44:50;4.30;;;2.50;;
50745;SDS011;36711;51.972;21.204;2023-07-13T11:47:39;5.50;;;2.60;;
50745;SDS011;36711;51.972;21.204;2023-07-13T11:50:17;4.90;;;2.30;;
50745;SDS011;36711;51.972;21.204;2023-07-13T11:52:46;3.70;;;2.20;;
50745;SDS011;36711;51.972;21.204;2023-07-13T11:55:17;5.90;;;2.30;;
50745;SDS011;36711;51.972;21.204;2023-07-13T11:57:59;7.20;;;2.60;;
50745;SDS011;36711;51.972;21.204;2023-07-13T12:00:29;2.20;;;1.80;;
50745;SDS011;36711;51.972;21.204;2023-07-13T12:03:02;3.60;;;1.90;;
50745;SDS011;36711;51.972;21.204;2023-07-13T12:05:34;4.40;;;1.70;;
50745;SDS011;36711;51.972;21.204;2023-07-13T12:08:09;4.70;;;1.90;;
50745;SDS011;36711;51.972;21.204;2023-07-13T12:11:02;4.00;;;1.90;;
50745;SDS011;36711;51.972;21.204;2023-07-13T12:13:37;4.90;;;1.70;;
50745;SDS011;36711;51.972;21.204;2023-07-13T12:18:56;6.90;;;2.90;;
50745;SDS011;36711;51.972;21.204;2023-07-13T12:21:38;3.80;;;2.10;;
50745;SDS011;36711;51.972;21.204;2023-07-13T12:26:36;3.70;;;1.90;;
50745;SDS011;36711;51.972;21.204;2023-07-13T12:29:06;2.30;;;1.80;;
50745;SDS011;36711;51.972;21.204;2023-07-13T12:31:36;4.10;;;2.30;;
50745;SDS011;36711;51.972;21.204;2023-07-13T12:34:09;5.80;;;2.30;;
50745;SDS011;36711;51.972;21.204;2023-07-13T12:36:41;2.90;;;2.50;;
50745;SDS011;36711;51.972;21.204;2023-07-13T12:41:49;6.00;;;2.30;;
50745;SDS011;36711;51.972;21.204;2023-07-13T12:44:28;2.80;;;2.20;;
50745;SDS011;36711;51.972;21.204;2023-07-13T12:47:02;2.00;;;1.80;;
50745;SDS011;36711;51.972;21.204;2023-07-13T12:49:33;3.40;;;2.60;;
50745;SDS011;36711;51.972;21.204;2023-07-13T12:52:10;4.80;;;2.90;;
50745;SDS011;36711;51.972;21.204;2023-07-13T12:54:52;3.60;;;2.40;;
50745;SDS011;36711;51.972;21.204;2023-07-13T12:57:38;2.90;;;2.20;;
50745;SDS011;36711;51.972;21.204;2023-07-13T13:00:20;2.10;;;1.90;;
50745;SDS011;36711;51.972;21.204;2023-07-13T13:02:50;3.10;;;1.70;;
50745;SDS011;36711;51.972;21.204;2023-07-13T13:05:19;7.70;;;2.70;;
50745;SDS011;36711;51.972;21.204;2023-07-13T13:07:51;4.50;;;2.90;;
50745;SDS011;36711;51.972;21.204;2023-07-13T13:10:20;3.10;;;2.70;;
50745;SDS011;36711;51.972;21.204;2023-07-13T13:12:50;3.90;;;2.50;;
50745;SDS011;36711;51.972;21.204;2023-07-13T13:15:19;3.40;;;2.20;;
50745;SDS011;36711;51.972;21.204;2023-07-13T13:17:47;5.40;;;2.80;;
50745;SDS011;36711;51.972;21.204;2023-07-13T13:20:18;4.50;;;2.70;;
50745;SDS011;36711;51.972;21.204;2023-07-13T13:22:47;3.90;;;2.80;;
50745;SDS011;36711;51.972;21.204;2023-07-13T13:25:16;3.00;;;2.60;;
50745;SDS011;36711;51.972;21.204;2023-07-13T13:27:46;3.40;;;2.30;;
50745;SDS011;36711;51.972;21.204;2023-07-13T13:30:16;4.70;;;2.40;;
50745;SDS011;36711;51.972;21.204;2023-07-13T13:32:46;3.30;;;2.10;;
50745;SDS011;36711;51.972;21.204;2023-07-13T13:35:16;2.50;;;2.10;;
50745;SDS011;36711;51.972;21.204;2023-07-13T13:37:46;4.30;;;2.80;;
50745;SDS011;36711;51.972;21.204;2023-07-13T13:40:23;6.70;;;3.10;;
50745;SDS011;36711;51.972;21.204;2023-07-13T13:42:52;4.10;;;2.50;;
50745;SDS011;36711;51.972;21.204;2023-07-13T13:45:22;2.50;;;2.00;;
50745;SDS011;36711;51.972;21.204;2023-07-13T13:47:53;3.20;;;2.10;;
50745;SDS011;36711;51.972;21.204;2023-07-13T13:50:23;5.90;;;2.60;;
50745;SDS011;36711;51.972;21.204;2023-07-13T13:52:52;5.40;;;2.50;;
50745;SDS011;36711;51.972;21.204;2023-07-13T13:55:21;3.70;;;2.70;;
50745;SDS011;36711;51.972;21.204;2023-07-13T13:57:52;2.70;;;1.90;;
50745;SDS011;36711;51.972;21.204;2023-07-13T14:00:22;2.00;;;1.80;;
50745;SDS011;36711;51.972;21.204;2023-07-13T14:02:52;2.50;;;2.30;;
50745;SDS011;36711;51.972;21.204;2023-07-13T14:05:22;2.80;;;2.50;;
50745;SDS011;36711;51.972;21.204;2023-07-13T14:07:54;10.40;;;2.60;;
50745;SDS011;36711;51.972;21.204;2023-07-13T14:10:23;2.60;;;2.00;;
50745;SDS011;36711;51.972;21.204;2023-07-13T14:12:53;3.90;;;2.00;;
50745;SDS011;36711;51.972;21.204;2023-07-13T14:17:51;3.10;;;2.50;;
50745;SDS011;36711;51.972;21.204;2023-07-13T14:20:20;2.50;;;2.30;;
50745;SDS011;36711;51.972;21.204;2023-07-13T14:22:51;3.50;;;2.50;;
50745;SDS011;36711;51.972;21.204;2023-07-13T14:25:21;3.30;;;1.90;;
50745;SDS011;36711;51.972;21.204;2023-07-13T14:27:58;2.60;;;1.80;;
50745;SDS011;36711;51.972;21.204;2023-07-13T14:30:29;4.70;;;2.00;;
50745;SDS011;36711;51.972;21.204;2023-07-13T14:32:58;2.50;;;2.30;;
50745;SDS011;36711;51.972;21.204;2023-07-13T14:35:27;3.00;;;2.60;;
50745;SDS011;36711;51.972;21.204;2023-07-13T14:37:55;3.60;;;2.40;;
50745;SDS011;36711;51.972;21.204;2023-07-13T14:40:25;3.00;;;2.40;;
50745;SDS011;36711;51.972;21.204;2023-07-13T14:42:55;2.40;;;2.10;;
50745;SDS011;36711;51.972;21.204;2023-07-13T14:45:23;1.80;;;1.70;;
50745;SDS011;36711;51.972;21.204;2023-07-13T14:47:53;2.60;;;1.70;;
50745;SDS011;36711;51.972;21.204;2023-07-13T14:50:31;3.20;;;2.00;;
50745;SDS011;36711;51.972;21.204;2023-07-13T14:53:01;4.10;;;2.40;;
50745;SDS011;36711;51.972;21.204;2023-07-13T14:55:29;2.80;;;2.40;;
50745;SDS011;36711;51.972;21.204;2023-07-13T14:57:58;3.20;;;1.70;;
50745;SDS011;36711;51.972;21.204;2023-07-13T15:00:27;2.50;;;1.50;;
50745;SDS011;36711;51.972;21.204;2023-07-13T15:02:57;2.60;;;1.80;;
50745;SDS011;36711;51.972;21.204;2023-07-13T15:05:28;3.00;;;2.10;;
50745;SDS011;36711;51.972;21.204;2023-07-13T15:07:59;4.40;;;2.10;;
50745;SDS011;36711;51.972;21.204;2023-07-13T15:10:29;3.10;;;2.30;;
50745;SDS011;36711;51.972;21.204;2023-07-13T15:13:21;2.10;;;1.80;;
50745;SDS011;36711;51.972;21.204;2023-07-13T15:15:49;5.90;;;1.80;;
50745;SDS011;36711;51.972;21.204;2023-07-13T15:18:20;3.30;;;1.80;;
50745;SDS011;36711;51.972;21.204;2023-07-13T15:20:50;2.50;;;1.80;;
50745;SDS011;36711;51.972;21.204;2023-07-13T15:23:21;3.50;;;2.40;;
50745;SDS011;36711;51.972;21.204;2023-07-13T15:25:51;2.20;;;2.00;;
50745;SDS011;36711;51.972;21.204;2023-07-13T15:28:20;3.00;;;2.70;;
50745;SDS011;36711;51.972;21.204;2023-07-13T15:30:49;3.10;;;2.50;;
50745;SDS011;36711;51.972;21.204;2023-07-13T15:33:27;4.70;;;2.20;;
50745;SDS011;36711;51.972;21.204;2023-07-13T15:35:57;3.10;;;2.00;;
50745;SDS011;36711;51.972;21.204;2023-07-13T15:38:28;4.20;;;2.80;;
50745;SDS011;36711;51.972;21.204;2023-07-13T15:40:58;3.90;;;2.60;;